Emily Anne Mcallister — WDB3028 — position and weather

sailwx.info

Track history (hours):
 
Tides and Currents Weather Stations Pressure Air Temp Water Temp Dewpoint Dewpoint Depression Visibility Wind Speed Wind Dir Waves Ship Positions

Emily Anne Mcallister

Owner: MCALLISTER TOWING & TRANSPORTATION INC, NEW YORK, NY. More information available from US FCC via Universal Licensing System and Coast Guard Vessel Documentation Center.

Last reported at 2017-Oct-23 02:43 UTC. Time now 2017-Oct-23 06:00 UTC.
Position N 36°55' W 076°20'.

Length 30 m; draft 5 m.

Type: Pilot. MMSI: 366882560.

Date/timePositionNaut miles runAvg speedWind from/ knotsBaromVisibWave heightAir tempDewpointWater temp
2017-Oct-23 02:43N 36°55' W 076°20'0 0.3
2017-Oct-23 02:29N 36°55' W 076°20'1 1.8
2017-Oct-23 01:56N 36°56' W 076°20'3 0.5
2017-Oct-22 19:54N 36°52' W 076°20'3 7.5
2017-Oct-22 19:31N 36°50' W 076°18'2 3.1
2017-Oct-22 19:01N 36°49' W 076°17'2 3.8
2017-Oct-22 18:30N 36°47' W 076°18'0 0.9
2017-Oct-22 18:00N 36°47' W 076°18'0 1.0
2017-Oct-22 17:30N 36°47' W 076°18'3 6.6
2017-Oct-22 17:00N 36°50' W 076°17'0 0.0
2017-Oct-22 16:31N 36°50' W 076°17'0 0.0
2017-Oct-22 16:01N 36°50' W 076°17'0 0.0
2017-Oct-22 15:30N 36°50' W 076°17'0 0.0
2017-Oct-22 15:00N 36°50' W 076°17'0 0.0
2017-Oct-22 14:30N 36°50' W 076°17'0 0.0
2017-Oct-22 14:00N 36°50' W 076°17'0 0.0
2017-Oct-22 13:30N 36°50' W 076°17'0 0.0
2017-Oct-22 13:01N 36°50' W 076°17'0 0.4
2017-Oct-22 12:30N 36°50' W 076°18'2 4.7
2017-Oct-22 12:00N 36°48' W 076°17'0 0.3
2017-Oct-22 11:31N 36°48' W 076°17'0 0.0
2017-Oct-22 11:00N 36°48' W 076°17'0 0.0
2017-Oct-22 10:30N 36°48' W 076°17'0 0.2
2017-Oct-22 10:00N 36°48' W 076°17'0 0.0
2017-Oct-22 09:31N 36°48' W 076°17'0 0.0
2017-Oct-22 09:01N 36°48' W 076°17'0 0.0
2017-Oct-22 08:31N 36°48' W 076°17'2 4.3
2017-Oct-22 08:01N 36°50' W 076°17'3 6.3
2017-Oct-22 07:30N 36°53' W 076°20'2 0.1
2017-Oct-20 15:16N 36°55' W 076°20'0 0.0
2017-Oct-20 15:00N 36°55' W 076°20'2 3.0
2017-Oct-20 14:22N 36°57' W 076°20'1 0.3
2017-Oct-20 10:25N 36°56' W 076°20'1 2.3
2017-Oct-20 10:00N 36°55' W 076°20'2 0.1
2017-Oct-18 15:23N 36°52' W 076°20'2 6.5
2017-Oct-18 15:00N 36°51' W 076°18'0 0.0
2017-Oct-18 13:58N 36°50' W 076°18'0 0.0
2017-Oct-18 13:26N 36°50' W 076°18'0 0.0
2017-Oct-18 12:59N 36°50' W 076°18'0 0.0
2017-Oct-18 12:20N 36°51' W 076°18'0 0.4
2017-Oct-18 11:56N 36°50' W 076°17'0 0.0
2017-Oct-18 11:28N 36°50' W 076°17'0 0.2
2017-Oct-18 10:58N 36°50' W 076°17'0 0.1
2017-Oct-18 10:30N 36°51' W 076°18'0 0.5
2017-Oct-18 09:57N 36°50' W 076°17'0 0.0
2017-Oct-18 08:57N 36°50' W 076°17'0 0.0
2017-Oct-18 08:19N 36°50' W 076°17'0 0.0
2017-Oct-18 08:00N 36°50' W 076°17'0 0.0
2017-Oct-18 07:30N 36°50' W 076°17'0 0.0
2017-Oct-18 07:00N 36°50' W 076°17'0 0.0
2017-Oct-18 06:28N 36°50' W 076°17'0 0.0
2017-Oct-18 06:00N 36°50' W 076°17'0 0.0
2017-Oct-18 05:30N 36°50' W 076°17'0 0.0
2017-Oct-18 04:55N 36°50' W 076°17'0 0.0
2017-Oct-18 03:29N 36°50' W 076°17'0 0.0
2017-Oct-18 02:59N 36°50' W 076°17'0 0.0
2017-Oct-18 02:28N 36°50' W 076°17'0 0.0
2017-Oct-18 01:22N 36°50' W 076°17'0 0.0
2017-Oct-17 23:39N 36°50' W 076°17'0 0.0
2017-Oct-17 21:51N 36°50' W 076°17'0 0.0
2017-Oct-17 21:17N 36°50' W 076°17'0 0.0
2017-Oct-17 17:48N 36°50' W 076°17'0 0.0
2017-Oct-17 17:26N 36°50' W 076°17'0 0.0
2017-Oct-17 16:28N 36°50' W 076°17'0 0.1
2017-Oct-17 15:18N 36°50' W 076°17'0 0.0
2017-Oct-17 14:53N 36°50' W 076°17'0 0.0
2017-Oct-17 13:25N 36°50' W 076°17'0 0.0
2017-Oct-17 12:57N 36°50' W 076°17'0 0.0
2017-Oct-17 12:07N 36°50' W 076°17'0 0.1
2017-Oct-17 11:25N 36°50' W 076°17'0 0.2
2017-Oct-17 10:56N 36°51' W 076°18'0 0.0
2017-Oct-17 10:26N 36°51' W 076°17'5 1.1
2017-Oct-17 05:32N 36°55' W 076°20'0 3.4
2017-Oct-17 05:27N 36°55' W 076°20'1 1.1
2017-Oct-17 04:57N 36°55' W 076°20'2 0.7
2017-Oct-17 01:30N 36°53' W 076°21'0 1.0
2017-Oct-17 01:00N 36°52' W 076°20'3 5.9
2017-Oct-17 00:30N 36°50' W 076°17'0 0.0
2017-Oct-17 00:00N 36°50' W 076°17'0 0.0
2017-Oct-16 23:31N 36°50' W 076°17'0 0.0
2017-Oct-16 23:01N 36°50' W 076°17'0 0.0
2017-Oct-16 22:31N 36°50' W 076°17'0 0.0
2017-Oct-16 22:00N 36°50' W 076°17'0 0.0
2017-Oct-16 21:30N 36°50' W 076°17'0 0.0
2017-Oct-16 21:01N 36°50' W 076°17'0 0.0
2017-Oct-16 20:30N 36°50' W 076°17'0 0.0
2017-Oct-16 19:56N 36°50' W 076°17'0 0.0
2017-Oct-16 19:30N 36°50' W 076°17'0 0.0
2017-Oct-16 19:01N 36°50' W 076°17'0 0.0
2017-Oct-16 18:31N 36°50' W 076°17'0 0.0
2017-Oct-16 18:00N 36°50' W 076°17'0 0.0
2017-Oct-16 17:30N 36°50' W 076°17'0 0.0
2017-Oct-16 17:00N 36°50' W 076°17'0 0.0
2017-Oct-16 13:17N 36°50' W 076°17'0 0.0
2017-Oct-16 13:00N 36°50' W 076°17'0 0.0
2017-Oct-16 12:29N 36°50' W 076°17'1 1.2
2017-Oct-16 12:00N 36°50' W 076°18'3 6.1
2017-Oct-16 11:30N 36°47' W 076°18'0 0.0
2017-Oct-16 11:00N 36°47' W 076°18'1 1.2
2017-Oct-16 10:30N 36°47' W 076°18'2 3.9
2017-Oct-16 10:00N 36°49' W 076°17'2 4.8
2017-Oct-16 09:30N 36°51' W 076°19'0 0.3
2017-Oct-16 09:00N 36°51' W 076°19'3 6.2
2017-Oct-16 08:29N 36°55' W 076°20'1 1.3
2017-Oct-16 08:00N 36°55' W 076°20'1 0.1
2017-Oct-15 21:03N 36°56' W 076°20'0 0.0
2017-Oct-15 20:49N 36°56' W 076°20'1 1.1
2017-Oct-15 20:03N 36°55' W 076°20'0 2.2
2017-Oct-15 19:55N 36°55' W 076°20'5 0.1
2017-Oct-13 18:18N 36°50' W 076°17'0 0.0
2017-Oct-13 18:00N 36°50' W 076°17'0 0.0
2017-Oct-13 17:30N 36°50' W 076°17'0 0.0
2017-Oct-13 17:00N 36°50' W 076°17'0 0.0
2017-Oct-13 16:30N 36°50' W 076°17'0 0.0
2017-Oct-13 16:00N 36°50' W 076°17'0 0.0
2017-Oct-13 15:30N 36°50' W 076°17'0 0.0
2017-Oct-13 15:00N 36°50' W 076°17'0 0.0
2017-Oct-13 14:30N 36°50' W 076°17'0 0.0
2017-Oct-13 14:00N 36°50' W 076°17'0 0.1
2017-Oct-13 13:30N 36°50' W 076°18'2 4.3
2017-Oct-13 13:00N 36°51' W 076°20'0 0.1
2017-Oct-13 12:30N 36°51' W 076°20'0 0.0
2017-Oct-13 12:00N 36°51' W 076°20'0 0.0
2017-Oct-13 11:30N 36°51' W 076°20'0 0.0
2017-Oct-13 11:00N 36°51' W 076°20'0 0.5
2017-Oct-13 10:12N 36°52' W 076°19'0 1.8
2017-Oct-13 10:00N 36°52' W 076°19'1 1.0
2017-Oct-13 09:22N 36°52' W 076°20'1 3.0
2017-Oct-13 09:00N 36°51' W 076°19'  
Track history (hours):
 
Tides and Currents Weather Stations Pressure Air Temp Water Temp Dewpoint Dewpoint Depression Visibility Wind Speed Wind Dir Waves Ship Positions

Emily Anne Mcallister

Owner: MCALLISTER TOWING & TRANSPORTATION INC, NEW YORK, NY. More information available from US FCC via Universal Licensing System and Coast Guard Vessel Documentation Center.

Last reported at 2017-Oct-23 02:43 UTC. Time now 2017-Oct-23 06:00 UTC.
Position N 36°55' W 076°20'.

Length 30 m; draft 5 m.

Type: Pilot. MMSI: 366882560.

Date/timePositionNaut miles runAvg speedWind from/ knotsBaromVisibWave heightAir tempDewpointWater temp
2017-Oct-23 02:43N 36°55' W 076°20'0 0.3
2017-Oct-23 02:29N 36°55' W 076°20'1 1.8
2017-Oct-23 01:56N 36°56' W 076°20'3 0.5
2017-Oct-22 19:54N 36°52' W 076°20'3 7.5
2017-Oct-22 19:31N 36°50' W 076°18'2 3.1
2017-Oct-22 19:01N 36°49' W 076°17'2 3.8
2017-Oct-22 18:30N 36°47' W 076°18'0 0.9
2017-Oct-22 18:00N 36°47' W 076°18'0 1.0
2017-Oct-22 17:30N 36°47' W 076°18'3 6.6
2017-Oct-22 17:00N 36°50' W 076°17'0 0.0
2017-Oct-22 16:31N 36°50' W 076°17'0 0.0
2017-Oct-22 16:01N 36°50' W 076°17'0 0.0
2017-Oct-22 15:30N 36°50' W 076°17'0 0.0
2017-Oct-22 15:00N 36°50' W 076°17'0 0.0
2017-Oct-22 14:30N 36°50' W 076°17'0 0.0
2017-Oct-22 14:00N 36°50' W 076°17'0 0.0
2017-Oct-22 13:30N 36°50' W 076°17'0 0.0
2017-Oct-22 13:01N 36°50' W 076°17'0 0.4
2017-Oct-22 12:30N 36°50' W 076°18'2 4.7
2017-Oct-22 12:00N 36°48' W 076°17'0 0.3
2017-Oct-22 11:31N 36°48' W 076°17'0 0.0
2017-Oct-22 11:00N 36°48' W 076°17'0 0.0
2017-Oct-22 10:30N 36°48' W 076°17'0 0.2
2017-Oct-22 10:00N 36°48' W 076°17'0 0.0
2017-Oct-22 09:31N 36°48' W 076°17'0 0.0
2017-Oct-22 09:01N 36°48' W 076°17'0 0.0
2017-Oct-22 08:31N 36°48' W 076°17'2 4.3
2017-Oct-22 08:01N 36°50' W 076°17'3 6.3
2017-Oct-22 07:30N 36°53' W 076°20'2 0.1
2017-Oct-20 15:16N 36°55' W 076°20'0 0.0
2017-Oct-20 15:00N 36°55' W 076°20'2 3.0
2017-Oct-20 14:22N 36°57' W 076°20'1 0.3
2017-Oct-20 10:25N 36°56' W 076°20'1 2.3
2017-Oct-20 10:00N 36°55' W 076°20'2 0.1
2017-Oct-18 15:23N 36°52' W 076°20'2 6.5
2017-Oct-18 15:00N 36°51' W 076°18'0 0.0
2017-Oct-18 13:58N 36°50' W 076°18'0 0.0
2017-Oct-18 13:26N 36°50' W 076°18'0 0.0
2017-Oct-18 12:59N 36°50' W 076°18'0 0.0
2017-Oct-18 12:20N 36°51' W 076°18'0 0.4
2017-Oct-18 11:56N 36°50' W 076°17'0 0.0
2017-Oct-18 11:28N 36°50' W 076°17'0 0.2
2017-Oct-18 10:58N 36°50' W 076°17'0 0.1
2017-Oct-18 10:30N 36°51' W 076°18'0 0.5
2017-Oct-18 09:57N 36°50' W 076°17'0 0.0
2017-Oct-18 08:57N 36°50' W 076°17'0 0.0
2017-Oct-18 08:19N 36°50' W 076°17'0 0.0
2017-Oct-18 08:00N 36°50' W 076°17'0 0.0
2017-Oct-18 07:30N 36°50' W 076°17'0 0.0
2017-Oct-18 07:00N 36°50' W 076°17'0 0.0
2017-Oct-18 06:28N 36°50' W 076°17'0 0.0
2017-Oct-18 06:00N 36°50' W 076°17'0 0.0
2017-Oct-18 05:30N 36°50' W 076°17'0 0.0
2017-Oct-18 04:55N 36°50' W 076°17'0 0.0
2017-Oct-18 03:29N 36°50' W 076°17'0 0.0
2017-Oct-18 02:59N 36°50' W 076°17'0 0.0
2017-Oct-18 02:28N 36°50' W 076°17'0 0.0
2017-Oct-18 01:22N 36°50' W 076°17'0 0.0
2017-Oct-17 23:39N 36°50' W 076°17'0 0.0
2017-Oct-17 21:51N 36°50' W 076°17'0 0.0
2017-Oct-17 21:17N 36°50' W 076°17'0 0.0
2017-Oct-17 17:48N 36°50' W 076°17'0 0.0
2017-Oct-17 17:26N 36°50' W 076°17'0 0.0
2017-Oct-17 16:28N 36°50' W 076°17'0 0.1
2017-Oct-17 15:18N 36°50' W 076°17'0 0.0
2017-Oct-17 14:53N 36°50' W 076°17'0 0.0
2017-Oct-17 13:25N 36°50' W 076°17'0 0.0
2017-Oct-17 12:57N 36°50' W 076°17'0 0.0
2017-Oct-17 12:07N 36°50' W 076°17'0 0.1
2017-Oct-17 11:25N 36°50' W 076°17'0 0.2
2017-Oct-17 10:56N 36°51' W 076°18'0 0.0
2017-Oct-17 10:26N 36°51' W 076°17'5 1.1
2017-Oct-17 05:32N 36°55' W 076°20'0 3.4
2017-Oct-17 05:27N 36°55' W 076°20'1 1.1
2017-Oct-17 04:57N 36°55' W 076°20'2 0.7
2017-Oct-17 01:30N 36°53' W 076°21'0 1.0
2017-Oct-17 01:00N 36°52' W 076°20'3 5.9
2017-Oct-17 00:30N 36°50' W 076°17'0 0.0
2017-Oct-17 00:00N 36°50' W 076°17'0 0.0
2017-Oct-16 23:31N 36°50' W 076°17'0 0.0
2017-Oct-16 23:01N 36°50' W 076°17'0 0.0
2017-Oct-16 22:31N 36°50' W 076°17'0 0.0
2017-Oct-16 22:00N 36°50' W 076°17'0 0.0
2017-Oct-16 21:30N 36°50' W 076°17'0 0.0
2017-Oct-16 21:01N 36°50' W 076°17'0 0.0
2017-Oct-16 20:30N 36°50' W 076°17'0 0.0
2017-Oct-16 19:56N 36°50' W 076°17'0 0.0
2017-Oct-16 19:30N 36°50' W 076°17'0 0.0
2017-Oct-16 19:01N 36°50' W 076°17'0 0.0
2017-Oct-16 18:31N 36°50' W 076°17'0 0.0
2017-Oct-16 18:00N 36°50' W 076°17'0 0.0
2017-Oct-16 17:30N 36°50' W 076°17'0 0.0
2017-Oct-16 17:00N 36°50' W 076°17'0 0.0
2017-Oct-16 13:17N 36°50' W 076°17'0 0.0
2017-Oct-16 13:00N 36°50' W 076°17'0 0.0
2017-Oct-16 12:29N 36°50' W 076°17'1 1.2
2017-Oct-16 12:00N 36°50' W 076°18'3 6.1
2017-Oct-16 11:30N 36°47' W 076°18'0 0.0
2017-Oct-16 11:00N 36°47' W 076°18'1 1.2
2017-Oct-16 10:30N 36°47' W 076°18'2 3.9
2017-Oct-16 10:00N 36°49' W 076°17'2 4.8
2017-Oct-16 09:30N 36°51' W 076°19'0 0.3
2017-Oct-16 09:00N 36°51' W 076°19'3 6.2
2017-Oct-16 08:29N 36°55' W 076°20'1 1.3
2017-Oct-16 08:00N 36°55' W 076°20'1 0.1
2017-Oct-15 21:03N 36°56' W 076°20'0 0.0
2017-Oct-15 20:49N 36°56' W 076°20'1 1.1
2017-Oct-15 20:03N 36°55' W 076°20'0 2.2
2017-Oct-15 19:55N 36°55' W 076°20'5 0.1
2017-Oct-13 18:18N 36°50' W 076°17'0 0.0
2017-Oct-13 18:00N 36°50' W 076°17'0 0.0
2017-Oct-13 17:30N 36°50' W 076°17'0 0.0
2017-Oct-13 17:00N 36°50' W 076°17'0 0.0
2017-Oct-13 16:30N 36°50' W 076°17'0 0.0
2017-Oct-13 16:00N 36°50' W 076°17'0 0.0
2017-Oct-13 15:30N 36°50' W 076°17'0 0.0
2017-Oct-13 15:00N 36°50' W 076°17'0 0.0
2017-Oct-13 14:30N 36°50' W 076°17'0 0.0
2017-Oct-13 14:00N 36°50' W 076°17'0 0.1
2017-Oct-13 13:30N 36°50' W 076°18'2 4.3
2017-Oct-13 13:00N 36°51' W 076°20'0 0.1
2017-Oct-13 12:30N 36°51' W 076°20'0 0.0
2017-Oct-13 12:00N 36°51' W 076°20'0 0.0
2017-Oct-13 11:30N 36°51' W 076°20'0 0.0
2017-Oct-13 11:00N 36°51' W 076°20'0 0.5
2017-Oct-13 10:12N 36°52' W 076°19'0 1.8
2017-Oct-13 10:00N 36°52' W 076°19'1 1.0
2017-Oct-13 09:22N 36°52' W 076°20'1 3.0
2017-Oct-13 09:00N 36°51' W 076°19'  

Dump ship's entire track history